Terminal Aerodrome Forecast
Issued by NWS

Current Version | Previous Version | Text Only | Print | Product List | Glossary On
Versions: 1 2 3 4 5 6 7 8 9 10 11 12 13 14 15 16 17 18 19 20 21 22 23 24 25 26 27
000
FTUS46 KMTR 062054 AAA
TAFSFO
TAF AMD
KSFO 062054Z 0621/0724 27016G21KT P6SM FEW020 SCT200
     FM070400 26012KT P6SM BKN015
     FM070800 26008KT P6SM OVC010
     FM071800 28010KT P6SM FEW010 SCT015
     FM072100 27016KT P6SM FEW012 FEW016=

USA.gov is the U.S. government's official web portal to all federal, state and local government web resources and services.